Portada
METAR-TAF:

METAR-TAF

Aeropuertos :

Nuakchot, Mauritania

Aeropuerto Internacional de Nuakchot

latitud: 18-18-36N, longitud: 015-58-11W, altitud: 3 m

Observación

El informe se hizo hace 24 minutos, a las 00:00 UTC
Viento 4 kt del norte
Temperatura 17°C
Humedad 72%
Presión 1013 hPa
Visibilidad: 8000 m

METAR: GQNO 200000Z 36004KT 8000 NSC 17/12 Q1013 NOSIG

Hora: 00:24 (00:24 UTC)

Pronóstico

El informe se hizo hace 1 hora y 24 minutos, a las 23:00 UTC
Pronóstico válido del 20 a las 00 UTC al 21 a las 06 UTC
Viento 8 kt del norte
Visibilidad: 8000 m
Evolucionando progresivamente
del 20 a las 07 UTC al 20 a las 10 UTC
Viento 10 kt del este-noreste
Evolucionando progresivamente
del 20 a las 16 UTC al 20 a las 20 UTC
Viento 10 kt del norte

TAF: GQNO 192300Z 2000/2106 35008KT 8000 NSC BECMG 2007/2010 07010KT BECMG 2016/2020 36010KT

Observaciones y pronósticos meteorológicos de más de 4000 aeropuertos (mensajes METAR y TAF).

Los puntos amarillos y rojos representan las estaciones disponibles.

Ponga el ratón en el punto deseado para ver el nombre de la estación.

Haga clic para ver las observaciones y los pronósticos meteorológicos.

Para cambiar el mapa : haga clic en los botones verdes con una cruz de color negro para hacer un zoom, en el botón verde con un guión para alejar o en las flechas verdes para mapas adyacentes.


METAR-TAF: